sensor_id;sensor_type;location;lat;lon;timestamp;temperature;humidity
13600;DHT22;6871;51.34740610;4.31323160;2022-09-09T00:00:22;24.00;68.80
13600;DHT22;6871;51.34740610;4.31323160;2022-09-09T00:02:57;24.00;68.80
13600;DHT22;6871;51.34740610;4.31323160;2022-09-09T00:05:32;24.00;68.80
13600;DHT22;6871;51.34740610;4.31323160;2022-09-09T00:08:04;24.00;68.80
13600;DHT22;6871;51.34740610;4.31323160;2022-09-09T00:10:36;24.00;68.80
13600;DHT22;6871;51.34740610;4.31323160;2022-09-09T00:13:13;24.00;68.80
13600;DHT22;6871;51.34740610;4.31323160;2022-09-09T00:15:59;24.00;68.80
13600;DHT22;6871;51.34740610;4.31323160;2022-09-09T00:18:22;24.00;68.80
13600;DHT22;6871;51.34740610;4.31323160;2022-09-09T00:20:54;24.00;68.70
13600;DHT22;6871;51.34740610;4.31323160;2022-09-09T00:23:27;23.90;69.10
13600;DHT22;6871;51.34740610;4.31323160;2022-09-09T00:26:03;24.00;68.70
13600;DHT22;6871;51.34740610;4.31323160;2022-09-09T00:28:38;24.00;68.80
13600;DHT22;6871;51.34740610;4.31323160;2022-09-09T00:31:12;23.90;68.70
13600;DHT22;6871;51.34740610;4.31323160;2022-09-09T00:33:42;24.00;68.80
13600;DHT22;6871;51.34740610;4.31323160;2022-09-09T00:36:15;23.90;68.60
13600;DHT22;6871;51.34740610;4.31323160;2022-09-09T00:38:47;24.00;68.80
13600;DHT22;6871;51.34740610;4.31323160;2022-09-09T00:41:21;24.00;68.80
13600;DHT22;6871;51.34740610;4.31323160;2022-09-09T00:43:56;23.90;68.70
13600;DHT22;6871;51.34740610;4.31323160;2022-09-09T00:46:54;24.00;68.70
13600;DHT22;6871;51.34740610;4.31323160;2022-09-09T00:49:32;24.00;68.70
13600;DHT22;6871;51.34740610;4.31323160;2022-09-09T00:52:05;23.90;68.60
13600;DHT22;6871;51.34740610;4.31323160;2022-09-09T00:54:44;23.90;68.70
13600;DHT22;6871;51.34740610;4.31323160;2022-09-09T00:57:23;23.90;68.70
13600;DHT22;6871;51.34740610;4.31323160;2022-09-09T00:59:56;23.90;68.70
13600;DHT22;6871;51.34740610;4.31323160;2022-09-09T01:02:28;23.90;69.60
13600;DHT22;6871;51.34740610;4.31323160;2022-09-09T01:05:03;23.90;68.60
13600;DHT22;6871;51.34740610;4.31323160;2022-09-09T01:07:32;23.90;68.60
13600;DHT22;6871;51.34740610;4.31323160;2022-09-09T01:10:05;23.90;68.60
13600;DHT22;6871;51.34740610;4.31323160;2022-09-09T01:12:38;23.90;68.60
13600;DHT22;6871;51.34740610;4.31323160;2022-09-09T01:15:12;23.90;68.60
13600;DHT22;6871;51.34740610;4.31323160;2022-09-09T01:17:55;23.90;68.40
13600;DHT22;6871;51.34740610;4.31323160;2022-09-09T01:20:27;23.90;68.50
13600;DHT22;6871;51.34740610;4.31323160;2022-09-09T01:23:07;23.80;68.40
13600;DHT22;6871;51.34740610;4.31323160;2022-09-09T01:26:10;23.80;68.40
13600;DHT22;6871;51.34740610;4.31323160;2022-09-09T01:28:40;23.80;68.40
13600;DHT22;6871;51.34740610;4.31323160;2022-09-09T01:31:11;23.80;68.40
13600;DHT22;6871;51.34740610;4.31323160;2022-09-09T01:33:41;23.80;68.30
13600;DHT22;6871;51.34740610;4.31323160;2022-09-09T01:36:12;23.80;68.50
13600;DHT22;6871;51.34740610;4.31323160;2022-09-09T01:38:42;23.80;68.40
13600;DHT22;6871;51.34740610;4.31323160;2022-09-09T01:41:12;23.80;68.30
13600;DHT22;6871;51.34740610;4.31323160;2022-09-09T01:43:40;23.80;68.30
13600;DHT22;6871;51.34740610;4.31323160;2022-09-09T01:46:10;23.80;68.30
13600;DHT22;6871;51.34740610;4.31323160;2022-09-09T01:48:41;23.80;68.30
13600;DHT22;6871;51.34740610;4.31323160;2022-09-09T01:51:11;23.80;68.30
13600;DHT22;6871;51.34740610;4.31323160;2022-09-09T01:53:41;23.80;68.30
13600;DHT22;6871;51.34740610;4.31323160;2022-09-09T01:56:17;23.80;67.60
13600;DHT22;6871;51.34740610;4.31323160;2022-09-09T02:01:46;23.80;68.20
13600;DHT22;6871;51.34740610;4.31323160;2022-09-09T02:04:23;23.80;68.30
13600;DHT22;6871;51.34740610;4.31323160;2022-09-09T02:06:55;23.80;68.30
13600;DHT22;6871;51.34740610;4.31323160;2022-09-09T02:09:25;23.80;68.30
13600;DHT22;6871;51.34740610;4.31323160;2022-09-09T02:11:57;23.80;68.20
13600;DHT22;6871;51.34740610;4.31323160;2022-09-09T02:14:30;23.80;68.20
13600;DHT22;6871;51.34740610;4.31323160;2022-09-09T02:17:01;23.70;68.10
13600;DHT22;6871;51.34740610;4.31323160;2022-09-09T02:19:34;23.70;68.10
13600;DHT22;6871;51.34740610;4.31323160;2022-09-09T02:22:04;23.70;68.20
13600;DHT22;6871;51.34740610;4.31323160;2022-09-09T02:24:37;23.70;68.10
13600;DHT22;6871;51.34740610;4.31323160;2022-09-09T02:27:07;23.70;68.10
13600;DHT22;6871;51.34740610;4.31323160;2022-09-09T02:29:40;23.70;68.10
13600;DHT22;6871;51.34740610;4.31323160;2022-09-09T02:32:12;23.70;68.00
13600;DHT22;6871;51.34740610;4.31323160;2022-09-09T02:34:43;23.70;68.20
13600;DHT22;6871;51.34740610;4.31323160;2022-09-09T02:37:16;23.70;68.10
13600;DHT22;6871;51.34740610;4.31323160;2022-09-09T02:39:46;23.70;68.10
13600;DHT22;6871;51.34740610;4.31323160;2022-09-09T02:42:16;23.70;68.00
13600;DHT22;6871;51.34740610;4.31323160;2022-09-09T02:44:45;23.70;67.90
13600;DHT22;6871;51.34740610;4.31323160;2022-09-09T02:47:29;23.70;68.00
13600;DHT22;6871;51.34740610;4.31323160;2022-09-09T02:50:04;23.70;68.00
13600;DHT22;6871;51.34740610;4.31323160;2022-09-09T02:52:38;23.70;68.00
13600;DHT22;6871;51.34740610;4.31323160;2022-09-09T02:55:11;23.70;67.90
13600;DHT22;6871;51.34740610;4.31323160;2022-09-09T02:57:42;23.70;67.90
13600;DHT22;6871;51.34740610;4.31323160;2022-09-09T03:00:13;23.70;67.90
13600;DHT22;6871;51.34740610;4.31323160;2022-09-09T03:02:43;23.60;67.80
13600;DHT22;6871;51.34740610;4.31323160;2022-09-09T03:05:12;23.60;67.90
13600;DHT22;6871;51.34740610;4.31323160;2022-09-09T03:07:41;23.70;67.90
13600;DHT22;6871;51.34740610;4.31323160;2022-09-09T03:10:10;23.60;67.70
13600;DHT22;6871;51.34740610;4.31323160;2022-09-09T03:12:39;23.60;67.70
13600;DHT22;6871;51.34740610;4.31323160;2022-09-09T03:15:09;23.60;67.70
13600;DHT22;6871;51.34740610;4.31323160;2022-09-09T03:17:39;23.60;67.80
13600;DHT22;6871;51.34740610;4.31323160;2022-09-09T03:20:09;23.70;67.80
13600;DHT22;6871;51.34740610;4.31323160;2022-09-09T03:22:38;23.60;67.70
13600;DHT22;6871;51.34740610;4.31323160;2022-09-09T03:25:08;23.60;67.70
13600;DHT22;6871;51.34740610;4.31323160;2022-09-09T03:27:37;23.60;67.60
13600;DHT22;6871;51.34740610;4.31323160;2022-09-09T03:30:07;23.60;67.70
13600;DHT22;6871;51.34740610;4.31323160;2022-09-09T03:32:36;23.60;67.70
13600;DHT22;6871;51.34740610;4.31323160;2022-09-09T03:35:07;23.60;67.60
13600;DHT22;6871;51.34740610;4.31323160;2022-09-09T03:37:36;23.60;67.60
13600;DHT22;6871;51.34740610;4.31323160;2022-09-09T03:40:08;23.60;67.70
13600;DHT22;6871;51.34740610;4.31323160;2022-09-09T03:42:37;23.60;67.60
13600;DHT22;6871;51.34740610;4.31323160;2022-09-09T03:45:09;23.60;67.60
13600;DHT22;6871;51.34740610;4.31323160;2022-09-09T03:47:38;23.60;67.60
13600;DHT22;6871;51.34740610;4.31323160;2022-09-09T03:50:09;23.60;67.60
13600;DHT22;6871;51.34740610;4.31323160;2022-09-09T03:52:39;23.60;67.50
13600;DHT22;6871;51.34740610;4.31323160;2022-09-09T03:55:10;23.60;67.60
13600;DHT22;6871;51.34740610;4.31323160;2022-09-09T03:57:39;23.60;67.40
13600;DHT22;6871;51.34740610;4.31323160;2022-09-09T04:00:10;23.60;67.60
13600;DHT22;6871;51.34740610;4.31323160;2022-09-09T04:02:40;23.60;67.60
13600;DHT22;6871;51.34740610;4.31323160;2022-09-09T04:05:09;23.50;67.40
13600;DHT22;6871;51.34740610;4.31323160;2022-09-09T04:07:38;23.60;67.40
13600;DHT22;6871;51.34740610;4.31323160;2022-09-09T04:10:09;23.50;67.30
13600;DHT22;6871;51.34740610;4.31323160;2022-09-09T04:12:38;23.50;67.50
13600;DHT22;6871;51.34740610;4.31323160;2022-09-09T04:15:08;23.60;67.50
13600;DHT22;6871;51.34740610;4.31323160;2022-09-09T04:17:38;23.50;67.40
13600;DHT22;6871;51.34740610;4.31323160;2022-09-09T04:20:07;23.50;67.40
13600;DHT22;6871;51.34740610;4.31323160;2022-09-09T04:22:38;23.50;67.30
13600;DHT22;6871;51.34740610;4.31323160;2022-09-09T04:25:08;23.60;67.30
13600;DHT22;6871;51.34740610;4.31323160;2022-09-09T04:27:37;23.50;67.50
13600;DHT22;6871;51.34740610;4.31323160;2022-09-09T04:30:08;23.50;67.50
13600;DHT22;6871;51.34740610;4.31323160;2022-09-09T04:32:38;23.50;67.40
13600;DHT22;6871;51.34740610;4.31323160;2022-09-09T04:35:07;23.50;68.20
13600;DHT22;6871;51.34740610;4.31323160;2022-09-09T04:37:36;23.50;67.30
13600;DHT22;6871;51.34740610;4.31323160;2022-09-09T04:40:08;23.50;67.30
13600;DHT22;6871;51.34740610;4.31323160;2022-09-09T04:42:38;23.50;67.30
13600;DHT22;6871;51.34740610;4.31323160;2022-09-09T04:45:10;23.50;67.30
13600;DHT22;6871;51.34740610;4.31323160;2022-09-09T04:47:40;23.50;67.40
13600;DHT22;6871;51.34740610;4.31323160;2022-09-09T04:50:10;23.50;67.30
13600;DHT22;6871;51.34740610;4.31323160;2022-09-09T04:52:39;23.50;67.40
13600;DHT22;6871;51.34740610;4.31323160;2022-09-09T04:55:09;23.50;67.30
13600;DHT22;6871;51.34740610;4.31323160;2022-09-09T04:57:38;23.50;67.30
13600;DHT22;6871;51.34740610;4.31323160;2022-09-09T05:00:10;23.50;67.30
13600;DHT22;6871;51.34740610;4.31323160;2022-09-09T05:02:40;23.50;67.30
13600;DHT22;6871;51.34740610;4.31323160;2022-09-09T05:05:10;23.50;67.30
13600;DHT22;6871;51.34740610;4.31323160;2022-09-09T05:07:39;23.40;68.00
13600;DHT22;6871;51.34740610;4.31323160;2022-09-09T05:10:10;23.40;67.20
13600;DHT22;6871;51.34740610;4.31323160;2022-09-09T05:12:39;23.50;67.30
13600;DHT22;6871;51.34740610;4.31323160;2022-09-09T05:15:09;23.40;67.30
13600;DHT22;6871;51.34740610;4.31323160;2022-09-09T05:17:39;23.50;67.30
13600;DHT22;6871;51.34740610;4.31323160;2022-09-09T05:20:09;23.40;67.20
13600;DHT22;6871;51.34740610;4.31323160;2022-09-09T05:22:39;23.40;67.20
13600;DHT22;6871;51.34740610;4.31323160;2022-09-09T05:25:09;23.40;67.30
13600;DHT22;6871;51.34740610;4.31323160;2022-09-09T05:27:38;23.40;67.20
13600;DHT22;6871;51.34740610;4.31323160;2022-09-09T05:30:09;23.40;67.20
13600;DHT22;6871;51.34740610;4.31323160;2022-09-09T05:32:38;23.40;67.20
13600;DHT22;6871;51.34740610;4.31323160;2022-09-09T05:35:08;23.40;67.20
13600;DHT22;6871;51.34740610;4.31323160;2022-09-09T05:37:37;23.40;67.10
13600;DHT22;6871;51.34740610;4.31323160;2022-09-09T05:40:08;23.40;67.20
13600;DHT22;6871;51.34740610;4.31323160;2022-09-09T05:42:38;23.40;67.20
13600;DHT22;6871;51.34740610;4.31323160;2022-09-09T05:45:08;23.40;68.00
13600;DHT22;6871;51.34740610;4.31323160;2022-09-09T05:47:38;23.40;67.10
13600;DHT22;6871;51.34740610;4.31323160;2022-09-09T05:50:08;23.40;67.20
13600;DHT22;6871;51.34740610;4.31323160;2022-09-09T05:52:37;23.40;67.20
13600;DHT22;6871;51.34740610;4.31323160;2022-09-09T05:55:08;23.40;67.20
13600;DHT22;6871;51.34740610;4.31323160;2022-09-09T05:57:37;23.40;67.20
13600;DHT22;6871;51.34740610;4.31323160;2022-09-09T06:00:09;23.40;67.20
13600;DHT22;6871;51.34740610;4.31323160;2022-09-09T06:02:40;23.40;67.20
13600;DHT22;6871;51.34740610;4.31323160;2022-09-09T06:05:09;23.30;67.10
13600;DHT22;6871;51.34740610;4.31323160;2022-09-09T06:07:39;23.40;67.20
13600;DHT22;6871;51.34740610;4.31323160;2022-09-09T06:10:10;23.40;67.20
13600;DHT22;6871;51.34740610;4.31323160;2022-09-09T06:12:41;23.40;67.20
13600;DHT22;6871;51.34740610;4.31323160;2022-09-09T06:15:10;23.40;67.20
13600;DHT22;6871;51.34740610;4.31323160;2022-09-09T06:17:39;23.40;67.10
13600;DHT22;6871;51.34740610;4.31323160;2022-09-09T06:20:09;23.40;67.00
13600;DHT22;6871;51.34740610;4.31323160;2022-09-09T06:22:40;23.40;67.10
13600;DHT22;6871;51.34740610;4.31323160;2022-09-09T06:25:10;23.30;67.00
13600;DHT22;6871;51.34740610;4.31323160;2022-09-09T06:27:40;23.30;67.00
13600;DHT22;6871;51.34740610;4.31323160;2022-09-09T06:30:11;23.30;67.00
13600;DHT22;6871;51.34740610;4.31323160;2022-09-09T06:32:40;23.40;66.90
13600;DHT22;6871;51.34740610;4.31323160;2022-09-09T06:35:10;23.40;66.90
13600;DHT22;6871;51.34740610;4.31323160;2022-09-09T06:37:39;23.40;67.00
13600;DHT22;6871;51.34740610;4.31323160;2022-09-09T06:40:10;23.30;67.10
13600;DHT22;6871;51.34740610;4.31323160;2022-09-09T06:42:39;23.30;67.10
13600;DHT22;6871;51.34740610;4.31323160;2022-09-09T06:45:10;23.30;67.10
13600;DHT22;6871;51.34740610;4.31323160;2022-09-09T06:47:39;23.30;67.00
13600;DHT22;6871;51.34740610;4.31323160;2022-09-09T06:50:09;23.30;67.10
13600;DHT22;6871;51.34740610;4.31323160;2022-09-09T06:52:38;23.30;67.20
13600;DHT22;6871;51.34740610;4.31323160;2022-09-09T06:55:08;23.30;67.10
13600;DHT22;6871;51.34740610;4.31323160;2022-09-09T06:57:37;23.30;67.10
13600;DHT22;6871;51.34740610;4.31323160;2022-09-09T07:00:08;23.30;67.00
13600;DHT22;6871;51.34740610;4.31323160;2022-09-09T07:02:38;23.30;66.90
13600;DHT22;6871;51.34740610;4.31323160;2022-09-09T07:05:09;23.30;66.90
13600;DHT22;6871;51.34740610;4.31323160;2022-09-09T07:07:39;23.30;66.90
13600;DHT22;6871;51.34740610;4.31323160;2022-09-09T07:10:08;23.30;67.00
13600;DHT22;6871;51.34740610;4.31323160;2022-09-09T07:12:37;23.30;67.00
13600;DHT22;6871;51.34740610;4.31323160;2022-09-09T07:15:08;23.30;67.10
13600;DHT22;6871;51.34740610;4.31323160;2022-09-09T07:17:37;23.30;66.90
13600;DHT22;6871;51.34740610;4.31323160;2022-09-09T07:20:07;23.30;66.90
13600;DHT22;6871;51.34740610;4.31323160;2022-09-09T07:22:37;23.30;66.90
13600;DHT22;6871;51.34740610;4.31323160;2022-09-09T07:25:07;23.30;66.90
13600;DHT22;6871;51.34740610;4.31323160;2022-09-09T07:27:36;23.30;67.10
13600;DHT22;6871;51.34740610;4.31323160;2022-09-09T07:30:08;23.30;67.10
13600;DHT22;6871;51.34740610;4.31323160;2022-09-09T07:32:37;23.30;68.00
13600;DHT22;6871;51.34740610;4.31323160;2022-09-09T07:35:08;23.30;67.20
13600;DHT22;6871;51.34740610;4.31323160;2022-09-09T07:37:38;23.30;67.10
13600;DHT22;6871;51.34740610;4.31323160;2022-09-09T07:40:08;23.30;67.90
13600;DHT22;6871;51.34740610;4.31323160;2022-09-09T07:42:37;23.30;67.60
13600;DHT22;6871;51.34740610;4.31323160;2022-09-09T07:45:07;23.30;67.20
13600;DHT22;6871;51.34740610;4.31323160;2022-09-09T07:47:36;23.30;67.10
13600;DHT22;6871;51.34740610;4.31323160;2022-09-09T07:50:06;23.30;67.10
13600;DHT22;6871;51.34740610;4.31323160;2022-09-09T07:52:36;23.30;67.20
13600;DHT22;6871;51.34740610;4.31323160;2022-09-09T07:55:06;23.30;67.00
13600;DHT22;6871;51.34740610;4.31323160;2022-09-09T07:57:35;23.30;67.10
13600;DHT22;6871;51.34740610;4.31323160;2022-09-09T08:00:06;23.30;67.10
13600;DHT22;6871;51.34740610;4.31323160;2022-09-09T08:02:35;23.30;66.80
13600;DHT22;6871;51.34740610;4.31323160;2022-09-09T08:05:05;23.30;66.90
13600;DHT22;6871;51.34740610;4.31323160;2022-09-09T08:07:34;23.30;67.00
13600;DHT22;6871;51.34740610;4.31323160;2022-09-09T08:10:03;23.30;66.90
13600;DHT22;6871;51.34740610;4.31323160;2022-09-09T08:12:34;23.30;66.80
13600;DHT22;6871;51.34740610;4.31323160;2022-09-09T08:15:03;23.30;67.00
13600;DHT22;6871;51.34740610;4.31323160;2022-09-09T08:17:33;23.30;67.10
13600;DHT22;6871;51.34740610;4.31323160;2022-09-09T08:20:02;23.30;67.20
13600;DHT22;6871;51.34740610;4.31323160;2022-09-09T08:22:33;23.30;67.10
13600;DHT22;6871;51.34740610;4.31323160;2022-09-09T08:25:03;23.30;67.10
13600;DHT22;6871;51.34740610;4.31323160;2022-09-09T08:27:34;23.30;67.10
13600;DHT22;6871;51.34740610;4.31323160;2022-09-09T08:30:03;23.30;67.10
13600;DHT22;6871;51.34740610;4.31323160;2022-09-09T08:32:32;23.30;67.20
13600;DHT22;6871;51.34740610;4.31323160;2022-09-09T08:35:03;23.30;67.90
13600;DHT22;6871;51.34740610;4.31323160;2022-09-09T08:37:31;23.30;67.10
13600;DHT22;6871;51.34740610;4.31323160;2022-09-09T08:40:01;23.30;67.20
13600;DHT22;6871;51.34740610;4.31323160;2022-09-09T08:42:36;23.30;67.20
13600;DHT22;6871;51.34740610;4.31323160;2022-09-09T08:45:20;23.30;67.20
13600;DHT22;6871;51.34740610;4.31323160;2022-09-09T08:47:56;23.30;67.20
13600;DHT22;6871;51.34740610;4.31323160;2022-09-09T08:50:27;23.30;67.20
13600;DHT22;6871;51.34740610;4.31323160;2022-09-09T08:53:01;23.30;67.20
13600;DHT22;6871;51.34740610;4.31323160;2022-09-09T08:55:39;23.30;67.80
13600;DHT22;6871;51.34740610;4.31323160;2022-09-09T08:58:13;23.30;67.20
13600;DHT22;6871;51.34740610;4.31323160;2022-09-09T09:03:40;23.30;67.20
13600;DHT22;6871;51.34740610;4.31323160;2022-09-09T09:06:17;23.30;67.20
13600;DHT22;6871;51.34740610;4.31323160;2022-09-09T09:08:47;23.30;67.30
13600;DHT22;6871;51.34740610;4.31323160;2022-09-09T09:11:17;23.30;67.40
13600;DHT22;6871;51.34740610;4.31323160;2022-09-09T09:13:48;23.30;67.50
13600;DHT22;6871;51.34740610;4.31323160;2022-09-09T09:16:22;23.30;67.40
13600;DHT22;6871;51.34740610;4.31323160;2022-09-09T09:18:52;23.20;67.30
13600;DHT22;6871;51.34740610;4.31323160;2022-09-09T09:21:26;23.30;67.40
13600;DHT22;6871;51.34740610;4.31323160;2022-09-09T09:23:58;23.30;67.30
13600;DHT22;6871;51.34740610;4.31323160;2022-09-09T09:26:30;23.20;67.30
13600;DHT22;6871;51.34740610;4.31323160;2022-09-09T09:29:01;23.20;67.30
13600;DHT22;6871;51.34740610;4.31323160;2022-09-09T09:31:30;23.20;67.50
13600;DHT22;6871;51.34740610;4.31323160;2022-09-09T09:33:59;23.20;67.50
13600;DHT22;6871;51.34740610;4.31323160;2022-09-09T09:36:38;23.20;67.40
13600;DHT22;6871;51.34740610;4.31323160;2022-09-09T09:39:08;23.20;67.40
13600;DHT22;6871;51.34740610;4.31323160;2022-09-09T09:41:40;23.20;67.50
13600;DHT22;6871;51.34740610;4.31323160;2022-09-09T09:44:23;23.20;67.50
13600;DHT22;6871;51.34740610;4.31323160;2022-09-09T09:46:53;23.20;67.50
13600;DHT22;6871;51.34740610;4.31323160;2022-09-09T09:49:22;23.20;67.50
13600;DHT22;6871;51.34740610;4.31323160;2022-09-09T09:51:51;23.20;67.40
13600;DHT22;6871;51.34740610;4.31323160;2022-09-09T09:54:24;23.20;67.40
13600;DHT22;6871;51.34740610;4.31323160;2022-09-09T09:56:53;23.20;67.50
13600;DHT22;6871;51.34740610;4.31323160;2022-09-09T09:59:31;23.20;67.50
13600;DHT22;6871;51.34740610;4.31323160;2022-09-09T10:02:05;23.20;67.50
13600;DHT22;6871;51.34740610;4.31323160;2022-09-09T10:04:25;23.20;67.50
13600;DHT22;6871;51.34740610;4.31323160;2022-09-09T10:06:54;23.20;67.50
13600;DHT22;6871;51.34740610;4.31323160;2022-09-09T10:09:25;23.20;67.60
13600;DHT22;6871;51.34740610;4.31323160;2022-09-09T10:11:59;23.20;67.70
13600;DHT22;6871;51.34740610;4.31323160;2022-09-09T10:14:32;23.20;67.60
13600;DHT22;6871;51.34740610;4.31323160;2022-09-09T10:17:13;23.20;67.60
13600;DHT22;6871;51.34740610;4.31323160;2022-09-09T10:19:49;23.20;67.60
13600;DHT22;6871;51.34740610;4.31323160;2022-09-09T10:22:26;23.20;67.70
13600;DHT22;6871;51.34740610;4.31323160;2022-09-09T10:25:10;23.20;67.70
13600;DHT22;6871;51.34740610;4.31323160;2022-09-09T10:27:44;23.20;67.70
13600;DHT22;6871;51.34740610;4.31323160;2022-09-09T10:30:17;23.20;67.80
13600;DHT22;6871;51.34740610;4.31323160;2022-09-09T10:32:49;23.20;67.80
13600;DHT22;6871;51.34740610;4.31323160;2022-09-09T10:35:30;23.20;67.90
13600;DHT22;6871;51.34740610;4.31323160;2022-09-09T10:38:18;23.20;68.00
13600;DHT22;6871;51.34740610;4.31323160;2022-09-09T10:44:11;23.20;67.90
13600;DHT22;6871;51.34740610;4.31323160;2022-09-09T10:46:43;23.20;67.80
13600;DHT22;6871;51.34740610;4.31323160;2022-09-09T10:49:19;23.20;68.00
13600;DHT22;6871;51.34740610;4.31323160;2022-09-09T10:51:55;23.20;68.00
13600;DHT22;6871;51.34740610;4.31323160;2022-09-09T10:54:43;23.20;68.00
13600;DHT22;6871;51.34740610;4.31323160;2022-09-09T10:57:17;23.20;68.10
13600;DHT22;6871;51.34740610;4.31323160;2022-09-09T10:59:47;23.20;68.20
13600;DHT22;6871;51.34740610;4.31323160;2022-09-09T11:02:21;23.20;68.10
13600;DHT22;6871;51.34740610;4.31323160;2022-09-09T11:04:53;23.20;68.40
13600;DHT22;6871;51.34740610;4.31323160;2022-09-09T11:07:27;23.20;68.00
13600;DHT22;6871;51.34740610;4.31323160;2022-09-09T11:09:59;23.20;68.20
13600;DHT22;6871;51.34740610;4.31323160;2022-09-09T11:12:29;23.20;68.20
13600;DHT22;6871;51.34740610;4.31323160;2022-09-09T11:15:03;23.20;68.00
13600;DHT22;6871;51.34740610;4.31323160;2022-09-09T11:17:36;23.20;68.10
13600;DHT22;6871;51.34740610;4.31323160;2022-09-09T11:20:10;23.20;68.10
13600;DHT22;6871;51.34740610;4.31323160;2022-09-09T11:22:44;23.20;68.10
13600;DHT22;6871;51.34740610;4.31323160;2022-09-09T11:25:17;23.30;68.10
13600;DHT22;6871;51.34740610;4.31323160;2022-09-09T11:27:57;23.30;68.20
13600;DHT22;6871;51.34740610;4.31323160;2022-09-09T11:30:30;23.30;68.20
13600;DHT22;6871;51.34740610;4.31323160;2022-09-09T11:33:13;23.30;68.20
13600;DHT22;6871;51.34740610;4.31323160;2022-09-09T11:35:50;23.20;68.10
13600;DHT22;6871;51.34740610;4.31323160;2022-09-09T11:38:25;23.30;68.00
13600;DHT22;6871;51.34740610;4.31323160;2022-09-09T11:40:59;23.30;68.20
13600;DHT22;6871;51.34740610;4.31323160;2022-09-09T11:43:31;23.20;68.20
13600;DHT22;6871;51.34740610;4.31323160;2022-09-09T11:46:03;23.30;68.30
13600;DHT22;6871;51.34740610;4.31323160;2022-09-09T11:48:36;23.30;68.30
13600;DHT22;6871;51.34740610;4.31323160;2022-09-09T11:51:08;23.30;68.40
13600;DHT22;6871;51.34740610;4.31323160;2022-09-09T11:53:49;23.20;68.10
13600;DHT22;6871;51.34740610;4.31323160;2022-09-09T11:56:30;23.30;68.20
13600;DHT22;6871;51.34740610;4.31323160;2022-09-09T11:59:02;23.30;68.30
13600;DHT22;6871;51.34740610;4.31323160;2022-09-09T12:01:40;23.20;68.40
13600;DHT22;6871;51.34740610;4.31323160;2022-09-09T12:04:29;23.30;68.50
13600;DHT22;6871;51.34740610;4.31323160;2022-09-09T12:07:02;23.30;68.20
13600;DHT22;6871;51.34740610;4.31323160;2022-09-09T12:09:43;23.20;68.20
13600;DHT22;6871;51.34740610;4.31323160;2022-09-09T12:12:30;23.30;68.20
13600;DHT22;6871;51.34740610;4.31323160;2022-09-09T12:15:16;23.30;68.20
13600;DHT22;6871;51.34740610;4.31323160;2022-09-09T12:17:40;23.20;68.50
13600;DHT22;6871;51.34740610;4.31323160;2022-09-09T12:20:13;23.20;68.40
13600;DHT22;6871;51.34740610;4.31323160;2022-09-09T12:22:50;23.20;68.30
13600;DHT22;6871;51.34740610;4.31323160;2022-09-09T12:25:26;23.20;68.40
13600;DHT22;6871;51.34740610;4.31323160;2022-09-09T12:28:01;23.30;68.50
13600;DHT22;6871;51.34740610;4.31323160;2022-09-09T12:30:34;23.30;68.50
13600;DHT22;6871;51.34740610;4.31323160;2022-09-09T12:33:09;23.30;68.50
13600;DHT22;6871;51.34740610;4.31323160;2022-09-09T12:35:40;23.20;68.40
13600;DHT22;6871;51.34740610;4.31323160;2022-09-09T12:38:13;23.30;68.40
13600;DHT22;6871;51.34740610;4.31323160;2022-09-09T12:40:43;23.30;68.50
13600;DHT22;6871;51.34740610;4.31323160;2022-09-09T12:43:19;23.30;68.50
13600;DHT22;6871;51.34740610;4.31323160;2022-09-09T12:45:50;23.30;68.80
13600;DHT22;6871;51.34740610;4.31323160;2022-09-09T12:48:27;23.20;68.80
13600;DHT22;6871;51.34740610;4.31323160;2022-09-09T12:50:52;23.30;68.80
13600;DHT22;6871;51.34740610;4.31323160;2022-09-09T12:53:26;23.30;68.90
13600;DHT22;6871;51.34740610;4.31323160;2022-09-09T12:55:58;23.30;68.90
13600;DHT22;6871;51.34740610;4.31323160;2022-09-09T12:58:28;23.20;68.90
13600;DHT22;6871;51.34740610;4.31323160;2022-09-09T13:01:00;23.20;69.50
13600;DHT22;6871;51.34740610;4.31323160;2022-09-09T13:03:33;23.30;69.00
13600;DHT22;6871;51.34740610;4.31323160;2022-09-09T13:06:13;23.20;68.90
13600;DHT22;6871;51.34740610;4.31323160;2022-09-09T13:08:43;23.30;68.90
13600;DHT22;6871;51.34740610;4.31323160;2022-09-09T13:11:13;23.30;68.90
13600;DHT22;6871;51.34740610;4.31323160;2022-09-09T13:13:49;23.30;69.10
13600;DHT22;6871;51.34740610;4.31323160;2022-09-09T13:16:23;23.30;69.90
13600;DHT22;6871;51.34740610;4.31323160;2022-09-09T13:18:53;23.30;69.20
13600;DHT22;6871;51.34740610;4.31323160;2022-09-09T13:21:33;23.30;69.20
13600;DHT22;6871;51.34740610;4.31323160;2022-09-09T13:24:05;23.30;69.30
13600;DHT22;6871;51.34740610;4.31323160;2022-09-09T13:26:36;23.30;69.30
13600;DHT22;6871;51.34740610;4.31323160;2022-09-09T13:29:15;23.30;69.30
13600;DHT22;6871;51.34740610;4.31323160;2022-09-09T13:31:46;23.30;69.30
13600;DHT22;6871;51.34740610;4.31323160;2022-09-09T13:34:25;23.30;69.20
13600;DHT22;6871;51.34740610;4.31323160;2022-09-09T13:36:58;23.30;69.50
13600;DHT22;6871;51.34740610;4.31323160;2022-09-09T13:39:27;23.30;69.70
13600;DHT22;6871;51.34740610;4.31323160;2022-09-09T13:41:57;23.30;69.70
13600;DHT22;6871;51.34740610;4.31323160;2022-09-09T13:44:28;23.30;69.70
13600;DHT22;6871;51.34740610;4.31323160;2022-09-09T13:47:02;23.30;69.70
13600;DHT22;6871;51.34740610;4.31323160;2022-09-09T13:49:32;23.30;69.60
13600;DHT22;6871;51.34740610;4.31323160;2022-09-09T13:52:08;23.30;69.80
13600;DHT22;6871;51.34740610;4.31323160;2022-09-09T13:54:38;23.30;69.80
13600;DHT22;6871;51.34740610;4.31323160;2022-09-09T13:57:15;23.30;69.80
13600;DHT22;6871;51.34740610;4.31323160;2022-09-09T13:59:45;23.30;69.80
13600;DHT22;6871;51.34740610;4.31323160;2022-09-09T14:02:15;23.30;69.70
13600;DHT22;6871;51.34740610;4.31323160;2022-09-09T14:04:44;23.30;70.80
13600;DHT22;6871;51.34740610;4.31323160;2022-09-09T14:07:14;23.30;70.00
13600;DHT22;6871;51.34740610;4.31323160;2022-09-09T14:09:44;23.30;70.00